createdAt,value
2023-07-24T00:00:09.400Z,8.77
2023-07-24T00:02:37.566Z,8.53
2023-07-24T00:05:06.508Z,8.37
2023-07-24T00:07:34.840Z,8.80
2023-07-24T00:10:03.212Z,8.13
2023-07-24T00:12:31.217Z,9.30
2023-07-24T00:14:59.416Z,8.63
2023-07-24T00:17:29.383Z,9.00
2023-07-24T00:19:58.193Z,8.47
2023-07-24T00:22:26.252Z,9.10
2023-07-24T00:24:54.420Z,8.17
2023-07-24T00:27:22.573Z,8.97
2023-07-24T00:29:51.759Z,8.03
2023-07-24T00:32:20.052Z,8.67
2023-07-24T00:34:49.647Z,8.10
2023-07-24T00:37:18.307Z,8.97
2023-07-24T00:39:46.704Z,8.33
2023-07-24T00:42:16.255Z,9.23
2023-07-24T00:44:44.265Z,8.83
2023-07-24T00:47:12.855Z,8.93
2023-07-24T00:49:41.437Z,8.10
2023-07-24T00:52:11.571Z,9.30
2023-07-24T00:54:40.643Z,9.17
2023-07-24T00:57:09.151Z,8.87
2023-07-24T00:59:38.252Z,8.87
2023-07-24T01:02:07.141Z,9.23
2023-07-24T01:04:35.726Z,8.67
2023-07-24T01:07:07.010Z,9.17
2023-07-24T01:09:36.579Z,9.13
2023-07-24T01:12:12.772Z,8.67
2023-07-24T01:14:48.380Z,9.43
2023-07-24T01:17:18.885Z,9.17
2023-07-24T01:19:51.166Z,8.70
2023-07-24T01:22:31.073Z,9.77
2023-07-24T01:25:11.977Z,9.07
2023-07-24T01:27:44.995Z,8.53
2023-07-24T01:30:13.989Z,8.43
2023-07-24T01:32:42.518Z,8.97
2023-07-24T01:35:10.918Z,9.10
2023-07-24T01:37:41.677Z,8.60
2023-07-24T01:40:12.150Z,9.37
2023-07-24T01:42:42.723Z,8.93
2023-07-24T01:45:13.545Z,8.30
2023-07-24T01:47:41.792Z,7.87
2023-07-24T01:50:10.926Z,7.90
2023-07-24T01:52:39.082Z,8.10
2023-07-24T01:55:10.368Z,7.87
2023-07-24T01:57:38.612Z,7.90
2023-07-24T02:00:08.342Z,8.97
2023-07-24T02:02:37.977Z,8.23
2023-07-24T02:05:06.603Z,8.80
2023-07-24T02:07:34.733Z,8.87
2023-07-24T02:10:02.993Z,8.93
2023-07-24T02:12:32.326Z,9.13
2023-07-24T02:15:01.001Z,9.37
2023-07-24T02:17:29.334Z,10.33
2023-07-24T02:19:59.144Z,9.60
2023-07-24T02:22:27.405Z,10.00
2023-07-24T02:24:55.549Z,9.47
2023-07-24T02:27:32.447Z,9.57
2023-07-24T02:30:01.437Z,9.77
2023-07-24T02:32:34.458Z,9.90
2023-07-24T02:35:04.057Z,9.30
2023-07-24T02:37:32.290Z,9.00
2023-07-24T02:40:00.702Z,9.80
2023-07-24T02:42:28.877Z,10.37
2023-07-24T02:44:57.202Z,9.80
2023-07-24T02:47:25.309Z,9.83
2023-07-24T02:49:54.673Z,9.83
2023-07-24T02:52:25.324Z,11.20
2023-07-24T02:54:53.332Z,9.13
2023-07-24T02:57:21.770Z,10.53
2023-07-24T02:59:49.825Z,9.50
2023-07-24T03:02:18.280Z,10.70
2023-07-24T03:04:46.518Z,9.53
2023-07-24T03:07:14.819Z,10.00
2023-07-24T03:09:44.321Z,10.17
2023-07-24T03:12:12.699Z,10.00
2023-07-24T03:14:40.746Z,10.60
2023-07-24T03:17:09.017Z,9.83
2023-07-24T03:19:37.354Z,9.23
2023-07-24T03:22:05.928Z,9.63
2023-07-24T03:24:32.941Z,9.20
2023-07-24T03:27:03.413Z,9.70
2023-07-24T03:29:31.611Z,9.00
2023-07-24T03:31:59.724Z,10.07
2023-07-24T03:34:28.202Z,9.90
2023-07-24T03:36:56.265Z,8.77
2023-07-24T03:39:24.415Z,9.90
2023-07-24T03:41:52.825Z,9.77
2023-07-24T03:44:22.340Z,9.07
2023-07-24T03:46:50.376Z,9.23
2023-07-24T03:49:19.139Z,8.67
2023-07-24T03:51:48.625Z,9.00
2023-07-24T03:54:17.019Z,9.10
2023-07-24T03:56:45.351Z,8.97
2023-07-24T03:59:14.963Z,9.73
2023-07-24T04:01:44.599Z,10.93
2023-07-24T04:04:12.841Z,11.10
2023-07-24T04:06:41.192Z,10.93
2023-07-24T04:09:09.830Z,9.67
2023-07-24T04:11:39.531Z,10.00
2023-07-24T04:14:07.866Z,9.13
2023-07-24T04:16:36.340Z,12.77
2023-07-24T04:19:08.265Z,12.37
2023-07-24T04:21:37.334Z,14.17
2023-07-24T04:24:06.414Z,14.07
2023-07-24T04:26:37.054Z,15.47
2023-07-24T04:29:09.431Z,17.37
2023-07-24T04:31:37.467Z,21.87
2023-07-24T04:34:05.904Z,18.93
2023-07-24T04:36:38.758Z,17.93
2023-07-24T04:39:07.227Z,16.73
2023-07-24T04:41:35.790Z,14.17
2023-07-24T04:44:04.238Z,13.83
2023-07-24T04:46:32.777Z,14.30
2023-07-24T04:49:01.274Z,12.60
2023-07-24T04:51:30.271Z,10.70
2023-07-24T04:53:59.978Z,9.37
2023-07-24T04:56:29.398Z,11.33
2023-07-24T04:59:00.651Z,12.03
2023-07-24T05:01:29.456Z,14.13
2023-07-24T05:03:57.834Z,13.75
2023-07-24T05:06:27.005Z,12.97
2023-07-24T05:08:55.487Z,12.88
2023-07-24T05:11:25.277Z,12.55
2023-07-24T05:13:53.893Z,11.95
2023-07-24T05:16:22.469Z,12.43
2023-07-24T05:18:51.131Z,11.85
2023-07-24T05:21:19.404Z,11.23
2023-07-24T05:23:47.922Z,11.95
2023-07-24T05:26:16.533Z,10.88
2023-07-24T05:28:47.056Z,9.65
2023-07-24T05:31:15.771Z,9.73
2023-07-24T05:33:43.759Z,10.02
2023-07-24T05:36:11.871Z,10.68
2023-07-24T05:38:40.135Z,9.95
2023-07-24T05:41:08.648Z,10.35
2023-07-24T05:43:36.938Z,9.45
2023-07-24T05:46:09.241Z,8.63
2023-07-24T05:48:37.735Z,9.38
2023-07-24T05:51:07.021Z,8.32
2023-07-24T05:53:35.271Z,9.05
2023-07-24T05:56:04.537Z,8.98
2023-07-24T05:58:36.599Z,8.70
2023-07-24T06:01:06.306Z,7.82
2023-07-24T06:03:34.979Z,7.70
2023-07-24T06:06:03.398Z,7.97
2023-07-24T06:08:31.441Z,8.35
2023-07-24T06:10:59.683Z,8.32
2023-07-24T06:13:28.047Z,8.35
2023-07-24T06:15:56.264Z,8.43
2023-07-24T06:18:27.116Z,8.15
2023-07-24T06:20:56.038Z,8.32
2023-07-24T06:23:26.414Z,8.60
2023-07-24T06:25:55.100Z,8.20
2023-07-24T06:28:23.530Z,7.75
2023-07-24T06:30:55.200Z,7.05
2023-07-24T06:33:25.143Z,8.70
2023-07-24T06:35:53.463Z,7.65
2023-07-24T06:38:23.603Z,7.85
2023-07-24T06:40:52.638Z,7.57
2023-07-24T06:43:20.710Z,7.78
2023-07-24T06:45:48.750Z,7.50
2023-07-24T06:48:17.300Z,7.32
2023-07-24T06:50:47.128Z,8.50
2023-07-24T06:53:15.896Z,8.48
2023-07-24T06:55:44.916Z,8.57
2023-07-24T06:58:13.491Z,9.60
2023-07-24T07:00:41.721Z,8.25
2023-07-24T07:03:10.478Z,7.70
2023-07-24T07:05:38.610Z,8.10
2023-07-24T07:08:08.028Z,7.43
2023-07-24T07:10:36.526Z,7.75
2023-07-24T07:13:05.190Z,10.23
2023-07-24T07:15:33.519Z,7.95
2023-07-24T07:18:02.002Z,8.25
2023-07-24T07:20:30.578Z,7.93
2023-07-24T07:22:58.801Z,8.77
2023-07-24T07:25:28.391Z,7.88
2023-07-24T07:27:56.731Z,8.18
2023-07-24T07:30:25.221Z,8.18
2023-07-24T07:32:56.364Z,8.52
2023-07-24T07:35:26.003Z,8.68
2023-07-24T07:37:54.884Z,8.25
2023-07-24T07:40:24.663Z,8.85
2023-07-24T07:42:54.338Z,8.35
2023-07-24T07:45:23.098Z,9.07
2023-07-24T07:47:51.535Z,8.35
2023-07-24T07:50:20.622Z,8.40
2023-07-24T07:52:52.301Z,8.57
2023-07-24T07:55:21.255Z,8.90
2023-07-24T07:57:50.372Z,9.45
2023-07-24T08:00:21.082Z,8.75
2023-07-24T08:02:49.500Z,9.65
2023-07-24T08:05:21.299Z,9.10
2023-07-24T08:07:49.993Z,8.50
2023-07-24T08:10:18.319Z,9.23
2023-07-24T08:12:47.012Z,10.50
2023-07-24T08:15:15.635Z,10.55
2023-07-24T08:17:45.411Z,9.68
2023-07-24T08:20:15.264Z,9.45
2023-07-24T08:22:43.765Z,9.50
2023-07-24T08:25:11.912Z,9.35
2023-07-24T08:27:54.391Z,9.95
2023-07-24T08:30:28.548Z,9.85
2023-07-24T08:32:59.062Z,10.38
2023-07-24T08:35:28.085Z,10.85
2023-07-24T08:37:56.747Z,9.50
2023-07-24T08:40:24.859Z,9.95
2023-07-24T08:42:55.020Z,10.35
2023-07-24T08:45:26.078Z,10.95
2023-07-24T08:47:54.803Z,10.85
2023-07-24T08:50:26.290Z,9.80
2023-07-24T08:52:54.999Z,10.38
2023-07-24T08:55:24.567Z,10.45
2023-07-24T08:57:52.786Z,10.82
2023-07-24T09:00:21.383Z,11.95
2023-07-24T09:02:49.507Z,10.85
2023-07-24T09:05:18.810Z,10.48
2023-07-24T09:07:50.255Z,10.90
2023-07-24T09:10:18.984Z,10.40
2023-07-24T09:12:47.557Z,9.73
2023-07-24T09:15:17.105Z,9.27
2023-07-24T09:17:54.079Z,10.02
2023-07-24T09:23:14.259Z,10.10
2023-07-24T09:25:46.701Z,10.70
2023-07-24T09:28:17.226Z,9.80
2023-07-24T09:30:56.064Z,10.18
2023-07-24T09:33:25.775Z,10.27
2023-07-24T09:36:00.942Z,10.30
2023-07-24T09:38:34.426Z,10.55
2023-07-24T09:41:03.825Z,9.90
2023-07-24T09:46:06.572Z,10.27
2023-07-24T09:51:08.627Z,10.20
2023-07-24T09:53:45.794Z,9.73
2023-07-24T09:56:14.320Z,10.65
2023-07-24T09:58:43.313Z,10.60
2023-07-24T10:01:12.741Z,10.48
2023-07-24T10:03:43.907Z,9.48
2023-07-24T10:06:13.737Z,9.30
2023-07-24T10:08:46.513Z,10.77
2023-07-24T10:11:16.923Z,9.70
2023-07-24T10:13:45.938Z,12.02
2023-07-24T10:16:15.385Z,9.65
2023-07-24T10:18:49.105Z,9.23
2023-07-24T10:21:17.610Z,10.32
2023-07-24T10:23:49.296Z,10.80
2023-07-24T10:26:18.372Z,10.27
2023-07-24T10:28:51.212Z,11.18
2023-07-24T10:31:25.563Z,10.27
2023-07-24T10:33:54.933Z,10.00
2023-07-24T10:36:25.941Z,9.98
2023-07-24T10:38:58.140Z,9.90
2023-07-24T10:41:37.876Z,10.63
2023-07-24T10:44:07.356Z,9.90
2023-07-24T10:46:39.401Z,10.32
2023-07-24T10:49:10.228Z,9.88
2023-07-24T10:51:40.091Z,10.02
2023-07-24T10:54:10.403Z,10.13
2023-07-24T10:56:40.027Z,9.95
2023-07-24T10:59:08.494Z,9.95
2023-07-24T11:01:37.408Z,10.15
2023-07-24T11:04:07.353Z,10.07
2023-07-24T11:09:41.610Z,10.18
2023-07-24T11:12:14.823Z,9.75
2023-07-24T11:14:55.381Z,10.65
2023-07-24T11:17:36.316Z,9.15
2023-07-24T11:20:10.053Z,9.93
2023-07-24T11:22:39.801Z,9.15
2023-07-24T11:25:10.572Z,10.82
2023-07-24T11:27:45.264Z,8.82
2023-07-24T11:30:14.971Z,9.10
2023-07-24T11:32:44.871Z,9.27
2023-07-24T11:35:14.931Z,8.90
2023-07-24T11:37:43.365Z,8.82
2023-07-24T11:40:16.367Z,11.35
2023-07-24T11:42:46.693Z,8.88
2023-07-24T11:45:15.483Z,8.52
2023-07-24T11:47:46.981Z,9.38
2023-07-24T11:50:16.023Z,8.40
2023-07-24T11:52:47.155Z,8.55
2023-07-24T11:55:19.168Z,8.75
2023-07-24T11:57:58.865Z,8.18
2023-07-24T12:00:27.893Z,7.90
2023-07-24T12:03:01.823Z,7.80
2023-07-24T12:05:31.929Z,8.05
2023-07-24T12:08:04.551Z,8.23
2023-07-24T12:10:40.506Z,8.27
2023-07-24T12:13:09.916Z,7.75
2023-07-24T12:15:40.197Z,8.38
2023-07-24T12:18:09.536Z,8.63
2023-07-24T12:20:38.218Z,7.05
2023-07-24T12:23:07.305Z,8.30
2023-07-24T12:25:38.233Z,7.60
2023-07-24T12:28:07.325Z,9.10
2023-07-24T12:30:35.634Z,8.95
2023-07-24T12:33:04.290Z,8.32
2023-07-24T12:35:33.483Z,8.00
2023-07-24T12:38:02.101Z,8.15
2023-07-24T12:40:30.449Z,8.00
2023-07-24T12:43:00.579Z,7.85
2023-07-24T12:45:30.222Z,7.60
2023-07-24T12:47:58.728Z,8.68
2023-07-24T12:50:27.258Z,8.57
2023-07-24T12:52:55.588Z,8.10
2023-07-24T12:55:24.620Z,8.05
2023-07-24T12:57:53.419Z,8.38
2023-07-24T13:00:23.514Z,7.95
2023-07-24T13:02:51.850Z,8.57
2023-07-24T13:05:20.336Z,7.38
2023-07-24T13:07:48.973Z,8.07
2023-07-24T13:10:17.285Z,7.53
2023-07-24T13:12:47.899Z,8.48
2023-07-24T13:15:17.684Z,8.93
2023-07-24T13:17:47.775Z,7.25
2023-07-24T13:20:16.699Z,7.97
2023-07-24T13:22:48.109Z,7.80
2023-07-24T13:25:16.763Z,7.65
2023-07-24T13:27:45.125Z,7.88
2023-07-24T13:30:14.401Z,8.25
2023-07-24T13:32:42.918Z,8.27
2023-07-24T13:35:13.160Z,8.75
2023-07-24T13:37:41.627Z,8.73
2023-07-24T13:40:11.592Z,8.10
2023-07-24T13:42:40.002Z,7.55
2023-07-24T13:45:09.912Z,8.10
2023-07-24T13:47:38.479Z,8.27
2023-07-24T13:50:09.271Z,8.45
2023-07-24T13:52:39.113Z,7.97
2023-07-24T13:55:08.620Z,7.35
2023-07-24T13:57:37.083Z,7.22
2023-07-24T14:00:06.139Z,8.35
2023-07-24T14:02:34.807Z,7.97
2023-07-24T14:05:03.511Z,7.93
2023-07-24T14:07:31.721Z,8.63
2023-07-24T14:10:01.152Z,8.82
2023-07-24T14:12:29.228Z,6.97
2023-07-24T14:14:57.470Z,8.07
2023-07-24T14:17:25.720Z,8.38
2023-07-24T14:19:53.927Z,9.07
2023-07-24T14:22:22.157Z,7.93
2023-07-24T14:24:50.493Z,8.55
2023-07-24T14:27:20.196Z,8.70
2023-07-24T14:29:48.605Z,9.15
2023-07-24T14:32:17.331Z,7.85
2023-07-24T14:34:46.038Z,9.20
2023-07-24T14:37:14.776Z,8.73
2023-07-24T14:39:43.267Z,8.93
2023-07-24T14:42:11.594Z,9.13
2023-07-24T14:44:41.234Z,8.48
2023-07-24T14:47:09.750Z,9.00
2023-07-24T14:49:38.143Z,8.93
2023-07-24T14:52:06.904Z,8.73
2023-07-24T14:54:38.608Z,9.05
2023-07-24T14:57:19.083Z,8.30
2023-07-24T14:59:54.799Z,8.35
2023-07-24T15:02:22.891Z,8.27
2023-07-24T15:04:51.505Z,8.43
2023-07-24T15:07:20.079Z,7.82
2023-07-24T15:09:48.550Z,7.95
2023-07-24T15:12:16.789Z,8.38
2023-07-24T15:14:45.072Z,8.45
2023-07-24T15:17:16.018Z,8.40
2023-07-24T15:19:44.184Z,9.07
2023-07-24T15:22:12.746Z,9.25
2023-07-24T15:24:42.276Z,9.02
2023-07-24T15:27:12.218Z,8.60
2023-07-24T15:29:40.788Z,8.70
2023-07-24T15:32:10.131Z,8.20
2023-07-24T15:34:40.287Z,8.70
2023-07-24T15:37:08.685Z,7.70
2023-07-24T15:39:36.998Z,8.80
2023-07-24T15:42:05.705Z,7.90
2023-07-24T15:44:34.085Z,7.47
2023-07-24T15:47:02.450Z,8.38
2023-07-24T15:49:31.854Z,8.00
2023-07-24T15:52:01.513Z,8.70
2023-07-24T15:54:29.913Z,7.88
2023-07-24T15:56:58.334Z,8.48
2023-07-24T15:59:26.671Z,9.35
2023-07-24T16:01:54.801Z,8.75
2023-07-24T16:04:23.502Z,8.55
2023-07-24T16:06:51.685Z,8.82
2023-07-24T16:09:23.086Z,9.10
2023-07-24T16:11:51.161Z,8.90
2023-07-24T16:14:19.581Z,9.05
2023-07-24T16:16:47.827Z,8.55
2023-07-24T16:19:17.443Z,8.32
2023-07-24T16:21:47.730Z,8.55
2023-07-24T16:24:18.419Z,9.20
2023-07-24T16:26:49.673Z,8.13
2023-07-24T16:29:18.332Z,8.68
2023-07-24T16:31:46.359Z,8.43
2023-07-24T16:34:15.457Z,9.32
2023-07-24T16:36:43.851Z,9.52
2023-07-24T16:39:12.246Z,8.98
2023-07-24T16:41:41.486Z,9.18
2023-07-24T16:44:15.321Z,9.65
2023-07-24T16:46:44.014Z,9.52
2023-07-24T16:49:12.431Z,9.43
2023-07-24T16:51:40.919Z,9.75
2023-07-24T16:54:10.421Z,9.30
2023-07-24T16:56:38.655Z,9.50
2023-07-24T16:59:06.691Z,9.60
2023-07-24T17:01:36.927Z,8.40
2023-07-24T17:04:05.382Z,9.50
2023-07-24T17:06:33.604Z,10.07
2023-07-24T17:09:01.659Z,9.20
2023-07-24T17:11:30.084Z,8.88
2023-07-24T17:13:59.518Z,9.52
2023-07-24T17:16:27.839Z,9.15
2023-07-24T17:18:57.469Z,9.88
2023-07-24T17:21:25.786Z,9.48
2023-07-24T17:23:53.993Z,9.70
2023-07-24T17:26:22.305Z,9.13
2023-07-24T17:28:50.606Z,8.50
2023-07-24T17:31:19.087Z,8.85
2023-07-24T17:33:47.184Z,9.32
2023-07-24T17:36:16.815Z,10.10
2023-07-24T17:38:45.088Z,9.48
2023-07-24T17:41:14.535Z,9.75
2023-07-24T17:43:42.551Z,9.75
2023-07-24T17:46:11.069Z,9.75
2023-07-24T17:48:39.065Z,10.57
2023-07-24T17:51:07.469Z,11.25
2023-07-24T17:53:37.016Z,10.20
2023-07-24T17:56:05.354Z,12.00
2023-07-24T17:58:33.450Z,11.85
2023-07-24T18:01:01.938Z,10.85
2023-07-24T18:03:30.139Z,10.35
2023-07-24T18:05:59.497Z,10.85
2023-07-24T18:08:28.897Z,10.70
2023-07-24T18:10:59.795Z,11.48
2023-07-24T18:13:27.919Z,10.68
2023-07-24T18:15:55.965Z,10.75
2023-07-24T18:18:24.178Z,12.40
2023-07-24T18:20:52.687Z,13.57
2023-07-24T18:23:20.849Z,12.93
2023-07-24T18:25:49.159Z,12.30
2023-07-24T18:28:18.504Z,12.25
2023-07-24T18:30:46.534Z,11.05
2023-07-24T18:33:16.064Z,12.48
2023-07-24T18:35:45.248Z,11.20
2023-07-24T18:38:13.555Z,11.27
2023-07-24T18:40:41.732Z,10.82
2023-07-24T18:43:10.002Z,11.45
2023-07-24T18:45:39.528Z,11.57
2023-07-24T18:48:09.572Z,10.10
2023-07-24T18:50:38.126Z,9.85
2023-07-24T18:53:06.818Z,10.48
2023-07-24T18:55:36.405Z,10.43
2023-07-24T18:58:04.392Z,10.25
2023-07-24T19:00:34.338Z,10.50
2023-07-24T19:03:04.813Z,11.23
2023-07-24T19:05:35.273Z,10.45
2023-07-24T19:08:03.657Z,10.85
2023-07-24T19:10:32.154Z,10.60
2023-07-24T19:13:00.650Z,9.82
2023-07-24T19:15:28.729Z,10.05
2023-07-24T19:17:57.274Z,10.13
2023-07-24T19:20:28.454Z,11.07
2023-07-24T19:22:57.971Z,10.90
2023-07-24T19:25:26.056Z,10.05
2023-07-24T19:27:54.409Z,10.63
2023-07-24T19:30:22.903Z,9.40
2023-07-24T19:32:51.329Z,10.02
2023-07-24T19:35:21.174Z,10.85
2023-07-24T19:37:50.642Z,9.60
2023-07-24T19:40:19.024Z,10.30
2023-07-24T19:42:47.771Z,10.45
2023-07-24T19:45:16.453Z,9.65
2023-07-24T19:47:44.675Z,9.40
2023-07-24T19:50:12.800Z,10.32
2023-07-24T19:52:41.217Z,9.85
2023-07-24T19:55:12.530Z,9.52
2023-07-24T19:57:40.700Z,9.30
2023-07-24T20:00:10.047Z,9.20
2023-07-24T20:02:38.433Z,9.68
2023-07-24T20:05:07.682Z,10.15
2023-07-24T20:07:36.310Z,9.25
2023-07-24T20:10:04.884Z,9.13
2023-07-24T20:12:34.809Z,9.35
2023-07-24T20:15:02.817Z,9.82
2023-07-24T20:17:32.473Z,8.98
2023-07-24T20:20:02.434Z,9.23
2023-07-24T20:22:30.716Z,9.07
2023-07-24T20:24:58.642Z,9.27
2023-07-24T20:27:27.297Z,9.65
2023-07-24T20:29:56.901Z,9.65
2023-07-24T20:32:25.378Z,9.18
2023-07-24T20:34:53.678Z,9.68
2023-07-24T20:37:21.789Z,8.98
2023-07-24T20:39:49.851Z,9.82
2023-07-24T20:42:17.919Z,9.55
2023-07-24T20:44:51.794Z,9.98
2023-07-24T20:47:21.929Z,9.90
2023-07-24T20:49:50.404Z,9.75
2023-07-24T20:52:19.384Z,9.38
2023-07-24T20:54:48.856Z,8.70
2023-07-24T20:57:17.148Z,9.23
2023-07-24T20:59:47.299Z,8.40
2023-07-24T21:02:15.977Z,8.88
2023-07-24T21:04:45.857Z,8.80
2023-07-24T21:07:15.062Z,9.45
2023-07-24T21:09:43.159Z,9.80
2023-07-24T21:12:11.225Z,9.07
2023-07-24T21:14:39.669Z,8.45
2023-07-24T21:17:08.013Z,9.88
2023-07-24T21:19:36.107Z,9.40
2023-07-24T21:22:06.697Z,9.93
2023-07-24T21:24:35.112Z,10.20
2023-07-24T21:27:03.558Z,9.65
2023-07-24T21:29:31.953Z,10.27
2023-07-24T21:32:00.071Z,10.38
2023-07-24T21:34:28.200Z,10.80
2023-07-24T21:36:56.613Z,10.77
2023-07-24T21:39:26.252Z,11.00
2023-07-24T21:41:54.255Z,11.07
2023-07-24T21:44:22.173Z,10.15
2023-07-24T21:46:50.521Z,12.52
2023-07-24T21:49:18.637Z,10.63
2023-07-24T21:51:47.407Z,11.02
2023-07-24T21:54:15.861Z,11.15
2023-07-24T21:56:45.300Z,11.35
2023-07-24T21:59:13.441Z,12.32
2023-07-24T22:01:41.568Z,11.15
2023-07-24T22:04:09.568Z,12.15
2023-07-24T22:06:37.522Z,11.50
2023-07-24T22:09:05.972Z,11.10
2023-07-24T22:11:36.935Z,10.95
2023-07-24T22:14:06.673Z,9.15
2023-07-24T22:16:36.541Z,9.25
2023-07-24T22:19:04.651Z,8.70
2023-07-24T22:21:34.277Z,9.15
2023-07-24T22:24:03.535Z,9.05
2023-07-24T22:26:32.515Z,8.95
2023-07-24T22:29:00.829Z,8.13
2023-07-24T22:31:30.425Z,9.60
2023-07-24T22:33:58.977Z,8.85
2023-07-24T22:36:27.093Z,9.18
2023-07-24T22:38:56.043Z,8.63
2023-07-24T22:41:24.562Z,9.30
2023-07-24T22:43:52.933Z,9.75
2023-07-24T22:46:21.387Z,9.85
2023-07-24T22:48:51.456Z,10.13
2023-07-24T22:51:19.937Z,10.20
2023-07-24T22:53:49.704Z,9.63
2023-07-24T22:56:17.832Z,10.20
2023-07-24T22:59:21.014Z,9.40
2023-07-24T23:01:50.333Z,10.87
2023-07-24T23:04:23.188Z,9.50
2023-07-24T23:06:54.354Z,9.00
2023-07-24T23:09:22.429Z,10.10
2023-07-24T23:11:50.638Z,10.17
2023-07-24T23:14:18.750Z,9.67
2023-07-24T23:16:48.358Z,9.20
2023-07-24T23:19:16.787Z,8.97
2023-07-24T23:21:46.409Z,9.73
2023-07-24T23:24:14.407Z,9.55
2023-07-24T23:26:42.467Z,10.20
2023-07-24T23:29:11.286Z,8.80
2023-07-24T23:31:39.351Z,8.93
2023-07-24T23:34:08.214Z,9.40
2023-07-24T23:36:36.513Z,8.70
2023-07-24T23:39:07.003Z,9.48
2023-07-24T23:41:35.178Z,9.30
2023-07-24T23:44:05.337Z,8.60
2023-07-24T23:46:34.750Z,8.30
2023-07-24T23:49:03.037Z,8.80
2023-07-24T23:51:32.170Z,9.17
2023-07-24T23:54:00.362Z,9.10
2023-07-24T23:56:29.754Z,8.47
2023-07-24T23:58:57.947Z,9.50
